sensor_id;sensor_type;location;lat;lon;timestamp;noise_LAeq;noise_LA_min;noise_LA_max;noise_LA01;noise_LA95
51665;Laerm;37751;52.408;12.536;2023-03-20T00:02:22;51.28;41.13;68.57;;
51665;Laerm;37751;52.408;12.536;2023-03-20T00:04:50;49.65;41.33;67.54;;
51665;Laerm;37751;52.408;12.536;2023-03-20T00:07:18;50.62;42.06;66.81;;
51665;Laerm;37751;52.408;12.536;2023-03-20T00:09:46;55.69;42.96;70.34;;
51665;Laerm;37751;52.408;12.536;2023-03-20T00:12:21;53.18;41.98;67.01;;
51665;Laerm;37751;52.408;12.536;2023-03-20T00:14:50;46.88;40.70;64.94;;
51665;Laerm;37751;52.408;12.536;2023-03-20T00:17:19;48.76;41.23;61.94;;
51665;Laerm;37751;52.408;12.536;2023-03-20T00:19:48;52.01;41.43;67.86;;
51665;Laerm;37751;52.408;12.536;2023-03-20T00:22:15;53.19;41.43;70.25;;
51665;Laerm;37751;52.408;12.536;2023-03-20T00:24:43;54.56;41.03;72.56;;
51665;Laerm;37751;52.408;12.536;2023-03-20T00:27:15;51.51;40.08;69.79;;
51665;Laerm;37751;52.408;12.536;2023-03-20T00:29:43;46.70;40.34;60.06;;
51665;Laerm;37751;52.408;12.536;2023-03-20T00:32:12;48.42;41.33;63.16;;
51665;Laerm;37751;52.408;12.536;2023-03-20T00:34:41;52.06;39.81;72.17;;
51665;Laerm;37751;52.408;12.536;2023-03-20T00:37:09;42.38;39.05;44.68;;
51665;Laerm;37751;52.408;12.536;2023-03-20T00:39:39;42.80;39.21;45.27;;
51665;Laerm;37751;52.408;12.536;2023-03-20T00:42:18;55.71;40.58;69.56;;
51665;Laerm;37751;52.408;12.536;2023-03-20T00:44:53;46.00;40.46;62.76;;
51665;Laerm;37751;52.408;12.536;2023-03-20T00:47:26;55.14;40.70;73.14;;
51665;Laerm;37751;52.408;12.536;2023-03-20T00:49:54;54.70;41.23;70.66;;
51665;Laerm;37751;52.408;12.536;2023-03-20T00:52:23;50.88;41.89;67.10;;
51665;Laerm;37751;52.408;12.536;2023-03-20T00:54:51;50.69;41.13;67.44;;
51665;Laerm;37751;52.408;12.536;2023-03-20T00:57:48;53.49;40.58;68.11;;
51665;Laerm;37751;52.408;12.536;2023-03-20T01:03:18;52.43;41.98;69.99;;
51665;Laerm;37751;52.408;12.536;2023-03-20T01:05:49;59.91;44.49;73.72;;
51665;Laerm;37751;52.408;12.536;2023-03-20T01:08:23;53.16;41.23;69.17;;
51665;Laerm;37751;52.408;12.536;2023-03-20T01:10:55;51.89;40.34;69.93;;
51665;Laerm;37751;52.408;12.536;2023-03-20T01:13:30;47.50;39.81;65.16;;
51665;Laerm;37751;52.408;12.536;2023-03-20T01:15:58;43.57;40.34;47.62;;
51665;Laerm;37751;52.408;12.536;2023-03-20T01:18:27;55.13;41.98;70.91;;
51665;Laerm;37751;52.408;12.536;2023-03-20T01:20:54;54.95;40.34;73.64;;
51665;Laerm;37751;52.408;12.536;2023-03-20T01:23:22;50.28;40.34;67.60;;
51665;Laerm;37751;52.408;12.536;2023-03-20T01:25:51;47.52;40.70;65.89;;
51665;Laerm;37751;52.408;12.536;2023-03-20T01:28:22;51.83;40.70;67.82;;
51665;Laerm;37751;52.408;12.536;2023-03-20T01:30:50;48.79;41.33;66.24;;
51665;Laerm;37751;52.408;12.536;2023-03-20T01:33:22;46.10;42.30;57.86;;
51665;Laerm;37751;52.408;12.536;2023-03-20T01:35:54;53.91;42.22;70.42;;
51665;Laerm;37751;52.408;12.536;2023-03-20T01:38:26;51.08;42.30;65.57;;
51665;Laerm;37751;52.408;12.536;2023-03-20T01:41:16;50.31;41.43;66.12;;
51665;Laerm;37751;52.408;12.536;2023-03-20T01:43:45;50.02;41.03;66.14;;
51665;Laerm;37751;52.408;12.536;2023-03-20T01:46:21;54.28;41.71;71.44;;
51665;Laerm;37751;52.408;12.536;2023-03-20T01:54:10;54.29;43.03;71.69;;
51665;Laerm;37751;52.408;12.536;2023-03-20T01:57:22;55.62;42.75;75.86;;
51665;Laerm;37751;52.408;12.536;2023-03-20T02:00:09;55.76;43.53;70.74;;
51665;Laerm;37751;52.408;12.536;2023-03-20T02:02:46;45.83;41.71;54.61;;
51665;Laerm;37751;52.408;12.536;2023-03-20T02:05:36;49.23;41.53;67.49;;
51665;Laerm;37751;52.408;12.536;2023-03-20T02:08:30;47.32;41.89;65.19;;
51665;Laerm;37751;52.408;12.536;2023-03-20T02:11:03;57.01;43.35;72.46;;
51665;Laerm;37751;52.408;12.536;2023-03-20T02:13:32;54.04;43.09;67.81;;
51665;Laerm;37751;52.408;12.536;2023-03-20T02:16:11;51.75;42.38;69.04;;
51665;Laerm;37751;52.408;12.536;2023-03-20T02:19:01;46.27;40.70;58.47;;
51665;Laerm;37751;52.408;12.536;2023-03-20T02:44:55;55.14;44.39;71.23;;
51665;Laerm;37751;52.408;12.536;2023-03-20T02:47:36;54.48;44.34;71.94;;
51665;Laerm;37751;52.408;12.536;2023-03-20T02:56:29;57.40;45.76;71.57;;
51665;Laerm;37751;52.408;12.536;2023-03-20T02:59:45;59.33;43.88;75.10;;
51665;Laerm;37751;52.408;12.536;2023-03-20T03:02:34;54.59;44.09;69.57;;
51665;Laerm;37751;52.408;12.536;2023-03-20T03:05:12;57.75;45.07;70.67;;
51665;Laerm;37751;52.408;12.536;2023-03-20T03:07:44;57.27;43.22;72.36;;
51665;Laerm;37751;52.408;12.536;2023-03-20T03:12:57;54.86;44.90;69.27;;
51665;Laerm;37751;52.408;12.536;2023-03-20T03:15:37;59.34;46.77;73.85;;
51665;Laerm;37751;52.408;12.536;2023-03-20T03:18:13;58.97;44.94;72.27;;
51665;Laerm;37751;52.408;12.536;2023-03-20T03:20:44;60.70;47.69;75.52;;
51665;Laerm;37751;52.408;12.536;2023-03-20T03:23:31;54.89;45.27;66.99;;
51665;Laerm;37751;52.408;12.536;2023-03-20T03:26:03;59.43;48.18;71.01;;
51665;Laerm;37751;52.408;12.536;2023-03-20T03:28:39;57.88;45.73;70.83;;
51665;Laerm;37751;52.408;12.536;2023-03-20T03:31:15;59.08;49.00;70.49;;
51665;Laerm;37751;52.408;12.536;2023-03-20T03:33:49;60.48;47.50;75.00;;
51665;Laerm;37751;52.408;12.536;2023-03-20T03:45:11;63.92;47.86;82.96;;
51665;Laerm;37751;52.408;12.536;2023-03-20T03:47:46;63.24;48.50;84.53;;
51665;Laerm;37751;52.408;12.536;2023-03-20T03:50:31;63.33;51.86;76.47;;
51665;Laerm;37751;52.408;12.536;2023-03-20T03:53:06;61.40;48.34;74.19;;
51665;Laerm;37751;52.408;12.536;2023-03-20T03:55:42;61.68;48.65;75.00;;
51665;Laerm;37751;52.408;12.536;2023-03-20T03:58:30;62.30;51.60;71.56;;
51665;Laerm;37751;52.408;12.536;2023-03-20T04:01:02;62.90;49.81;80.39;;
51665;Laerm;37751;52.408;12.536;2023-03-20T04:03:41;62.01;50.07;81.60;;
51665;Laerm;37751;52.408;12.536;2023-03-20T04:06:10;61.62;47.30;74.96;;
51665;Laerm;37751;52.408;12.536;2023-03-20T04:08:42;62.51;49.29;80.59;;
51665;Laerm;37751;52.408;12.536;2023-03-20T04:11:19;60.94;49.20;75.21;;
51665;Laerm;37751;52.408;12.536;2023-03-20T04:13:50;62.80;51.97;74.78;;
51665;Laerm;37751;52.408;12.536;2023-03-20T04:16:20;60.43;49.83;71.42;;
51665;Laerm;37751;52.408;12.536;2023-03-20T04:18:49;61.88;48.77;74.35;;
51665;Laerm;37751;52.408;12.536;2023-03-20T04:21:17;60.16;45.83;71.98;;
51665;Laerm;37751;52.408;12.536;2023-03-20T04:23:46;74.49;49.29;95.13;;
51665;Laerm;37751;52.408;12.536;2023-03-20T04:26:14;60.46;47.10;70.64;;
51665;Laerm;37751;52.408;12.536;2023-03-20T04:28:42;61.20;50.69;71.01;;
51665;Laerm;37751;52.408;12.536;2023-03-20T04:31:28;62.28;51.32;74.43;;
51665;Laerm;37751;52.408;12.536;2023-03-20T04:34:02;66.42;49.76;85.67;;
51665;Laerm;37751;52.408;12.536;2023-03-20T04:37:05;62.66;50.07;71.01;;
51665;Laerm;37751;52.408;12.536;2023-03-20T04:40:03;62.42;48.46;73.60;;
51665;Laerm;37751;52.408;12.536;2023-03-20T04:42:31;63.85;50.35;83.95;;
51665;Laerm;37751;52.408;12.536;2023-03-20T04:45:04;62.37;50.67;73.75;;
51665;Laerm;37751;52.408;12.536;2023-03-20T04:47:32;63.36;50.59;71.76;;
51665;Laerm;37751;52.408;12.536;2023-03-20T04:49:59;62.92;50.88;77.35;;
51665;Laerm;37751;52.408;12.536;2023-03-20T04:52:31;62.49;51.72;72.60;;
51665;Laerm;37751;52.408;12.536;2023-03-20T04:54:58;62.93;6.00;71.86;;
51665;Laerm;37751;52.408;12.536;2023-03-20T04:57:27;63.01;50.04;77.07;;
51665;Laerm;37751;52.408;12.536;2023-03-20T04:59:55;63.25;47.43;84.04;;
51665;Laerm;37751;52.408;12.536;2023-03-20T05:02:22;62.10;49.26;70.39;;
51665;Laerm;37751;52.408;12.536;2023-03-20T05:04:50;63.16;51.38;72.68;;
51665;Laerm;37751;52.408;12.536;2023-03-20T05:07:18;62.34;51.58;72.48;;
51665;Laerm;37751;52.408;12.536;2023-03-20T05:10:07;62.20;49.31;71.48;;
51665;Laerm;37751;52.408;12.536;2023-03-20T05:12:45;62.10;49.37;70.42;;
51665;Laerm;37751;52.408;12.536;2023-03-20T05:15:46;63.94;49.07;73.23;;
51665;Laerm;37751;52.408;12.536;2023-03-20T05:18:34;64.39;49.77;76.71;;
51665;Laerm;37751;52.408;12.536;2023-03-20T05:21:13;63.66;48.46;73.83;;
51665;Laerm;37751;52.408;12.536;2023-03-20T05:23:57;61.80;48.44;72.49;;
51665;Laerm;37751;52.408;12.536;2023-03-20T05:26:31;64.60;48.90;72.93;;
51665;Laerm;37751;52.408;12.536;2023-03-20T05:29:18;64.62;54.07;73.61;;
51665;Laerm;37751;52.408;12.536;2023-03-20T05:31:45;62.19;49.91;78.21;;
51665;Laerm;37751;52.408;12.536;2023-03-20T05:34:20;64.28;50.35;85.08;;
51665;Laerm;37751;52.408;12.536;2023-03-20T05:37:17;63.64;49.12;73.70;;
51665;Laerm;37751;52.408;12.536;2023-03-20T05:40:02;63.83;48.34;72.99;;
51665;Laerm;37751;52.408;12.536;2023-03-20T05:42:55;65.35;53.36;74.41;;
51665;Laerm;37751;52.408;12.536;2023-03-20T05:45:36;64.99;52.10;74.41;;
51665;Laerm;37751;52.408;12.536;2023-03-20T05:48:22;63.89;50.56;74.79;;
51665;Laerm;37751;52.408;12.536;2023-03-20T05:51:10;66.27;51.92;81.68;;
51665;Laerm;37751;52.408;12.536;2023-03-20T05:54:14;63.84;51.60;72.09;;
51665;Laerm;37751;52.408;12.536;2023-03-20T05:57:04;65.03;52.67;79.72;;
51665;Laerm;37751;52.408;12.536;2023-03-20T05:59:52;66.57;50.69;85.38;;
51665;Laerm;37751;52.408;12.536;2023-03-20T06:02:38;64.46;54.56;80.83;;
51665;Laerm;37751;52.408;12.536;2023-03-20T06:05:26;64.66;50.34;74.47;;
51665;Laerm;37751;52.408;12.536;2023-03-20T06:07:53;64.25;48.93;74.53;;
51665;Laerm;37751;52.408;12.536;2023-03-20T06:10:21;62.74;53.50;71.43;;
51665;Laerm;37751;52.408;12.536;2023-03-20T06:12:50;64.86;54.59;75.71;;
51665;Laerm;37751;52.408;12.536;2023-03-20T06:15:23;64.30;50.90;73.21;;
51665;Laerm;37751;52.408;12.536;2023-03-20T06:17:58;65.54;54.20;73.70;;
51665;Laerm;37751;52.408;12.536;2023-03-20T06:20:26;64.15;51.77;72.85;;
51665;Laerm;37751;52.408;12.536;2023-03-20T06:22:54;64.92;53.18;73.96;;
51665;Laerm;37751;52.408;12.536;2023-03-20T06:25:23;64.32;52.49;72.66;;
51665;Laerm;37751;52.408;12.536;2023-03-20T06:27:50;63.44;50.28;72.53;;
51665;Laerm;37751;52.408;12.536;2023-03-20T06:30:19;64.11;51.09;79.22;;
51665;Laerm;37751;52.408;12.536;2023-03-20T06:32:48;64.09;50.33;74.85;;
51665;Laerm;37751;52.408;12.536;2023-03-20T06:35:17;64.55;54.47;70.20;;
51665;Laerm;37751;52.408;12.536;2023-03-20T06:37:48;63.26;51.08;71.75;;
51665;Laerm;37751;52.408;12.536;2023-03-20T06:40:21;64.43;51.86;75.06;;
51665;Laerm;37751;52.408;12.536;2023-03-20T06:42:49;63.59;53.55;73.62;;
51665;Laerm;37751;52.408;12.536;2023-03-20T06:45:18;64.19;50.80;74.64;;
51665;Laerm;37751;52.408;12.536;2023-03-20T06:47:56;62.95;50.74;71.93;;
51665;Laerm;37751;52.408;12.536;2023-03-20T06:50:24;64.72;50.65;75.12;;
51665;Laerm;37751;52.408;12.536;2023-03-20T06:52:53;63.26;52.13;73.18;;
51665;Laerm;37751;52.408;12.536;2023-03-20T06:55:36;64.02;50.91;73.65;;
51665;Laerm;37751;52.408;12.536;2023-03-20T06:58:05;64.61;53.44;75.00;;
51665;Laerm;37751;52.408;12.536;2023-03-20T07:00:34;66.96;49.87;92.28;;
51665;Laerm;37751;52.408;12.536;2023-03-20T07:03:05;63.73;52.77;72.23;;
51665;Laerm;37751;52.408;12.536;2023-03-20T07:05:33;64.03;50.88;72.90;;
51665;Laerm;37751;52.408;12.536;2023-03-20T07:08:06;63.28;52.29;73.55;;
51665;Laerm;37751;52.408;12.536;2023-03-20T07:10:34;65.55;49.48;78.20;;
51665;Laerm;37751;52.408;12.536;2023-03-20T07:13:02;65.33;50.79;75.77;;
51665;Laerm;37751;52.408;12.536;2023-03-20T07:15:31;63.60;47.28;73.01;;
51665;Laerm;37751;52.408;12.536;2023-03-20T07:17:59;63.61;51.57;75.87;;
51665;Laerm;37751;52.408;12.536;2023-03-20T07:20:27;64.48;54.31;81.60;;
51665;Laerm;37751;52.408;12.536;2023-03-20T07:22:55;64.65;51.28;74.44;;
51665;Laerm;37751;52.408;12.536;2023-03-20T07:25:25;64.39;52.16;75.81;;
51665;Laerm;37751;52.408;12.536;2023-03-20T07:28:11;64.47;51.08;74.94;;
51665;Laerm;37751;52.408;12.536;2023-03-20T07:30:43;64.08;51.60;72.52;;
51665;Laerm;37751;52.408;12.536;2023-03-20T07:33:14;63.48;51.44;72.35;;
51665;Laerm;37751;52.408;12.536;2023-03-20T07:35:42;64.28;52.08;72.95;;
51665;Laerm;37751;52.408;12.536;2023-03-20T07:38:10;64.64;54.90;73.63;;
51665;Laerm;37751;52.408;12.536;2023-03-20T07:40:48;64.06;53.34;73.88;;
51665;Laerm;37751;52.408;12.536;2023-03-20T07:43:16;65.16;54.99;77.05;;
51665;Laerm;37751;52.408;12.536;2023-03-20T07:46:07;64.91;51.61;73.81;;
51665;Laerm;37751;52.408;12.536;2023-03-20T07:48:37;65.75;53.57;74.58;;
51665;Laerm;37751;52.408;12.536;2023-03-20T07:51:05;66.27;55.54;75.04;;
51665;Laerm;37751;52.408;12.536;2023-03-20T07:53:33;64.73;53.85;73.83;;
51665;Laerm;37751;52.408;12.536;2023-03-20T07:56:04;64.27;52.87;72.89;;
51665;Laerm;37751;52.408;12.536;2023-03-20T07:58:31;65.50;53.12;76.04;;
51665;Laerm;37751;52.408;12.536;2023-03-20T08:01:02;64.08;53.08;74.84;;
51665;Laerm;37751;52.408;12.536;2023-03-20T08:03:30;63.75;51.99;74.67;;
51665;Laerm;37751;52.408;12.536;2023-03-20T08:05:59;63.45;51.40;72.47;;
51665;Laerm;37751;52.408;12.536;2023-03-20T08:08:28;64.23;53.00;73.75;;
51665;Laerm;37751;52.408;12.536;2023-03-20T08:10:56;64.83;53.04;72.00;;
51665;Laerm;37751;52.408;12.536;2023-03-20T08:13:24;64.36;50.64;73.31;;
51665;Laerm;37751;52.408;12.536;2023-03-20T08:15:51;64.81;52.43;76.18;;
51665;Laerm;37751;52.408;12.536;2023-03-20T08:18:19;65.40;53.39;77.07;;
51665;Laerm;37751;52.408;12.536;2023-03-20T08:20:48;63.76;54.09;76.52;;
51665;Laerm;37751;52.408;12.536;2023-03-20T08:23:16;65.78;53.48;76.12;;
51665;Laerm;37751;52.408;12.536;2023-03-20T08:25:51;64.27;52.89;72.44;;
51665;Laerm;37751;52.408;12.536;2023-03-20T08:28:21;63.45;51.00;72.74;;
51665;Laerm;37751;52.408;12.536;2023-03-20T08:31:08;63.72;53.90;73.25;;
51665;Laerm;37751;52.408;12.536;2023-03-20T08:33:36;65.38;52.03;75.48;;
51665;Laerm;37751;52.408;12.536;2023-03-20T08:36:04;65.37;51.70;74.21;;
51665;Laerm;37751;52.408;12.536;2023-03-20T08:38:32;65.58;51.44;80.13;;
51665;Laerm;37751;52.408;12.536;2023-03-20T08:41:00;62.93;48.88;72.21;;
51665;Laerm;37751;52.408;12.536;2023-03-20T08:43:27;64.47;54.03;74.18;;
51665;Laerm;37751;52.408;12.536;2023-03-20T08:45:55;64.08;51.69;74.69;;
51665;Laerm;37751;52.408;12.536;2023-03-20T08:48:23;65.35;55.35;75.35;;
51665;Laerm;37751;52.408;12.536;2023-03-20T08:50:52;63.16;54.66;72.65;;
51665;Laerm;37751;52.408;12.536;2023-03-20T08:53:19;63.33;53.19;75.65;;
51665;Laerm;37751;52.408;12.536;2023-03-20T08:55:50;68.07;54.49;83.42;;
51665;Laerm;37751;52.408;12.536;2023-03-20T08:58:20;64.79;55.86;76.62;;
51665;Laerm;37751;52.408;12.536;2023-03-20T09:00:48;65.05;51.89;75.77;;
51665;Laerm;37751;52.408;12.536;2023-03-20T09:03:19;65.22;49.83;73.82;;
51665;Laerm;37751;52.408;12.536;2023-03-20T09:05:49;64.13;52.91;73.89;;
51665;Laerm;37751;52.408;12.536;2023-03-20T09:08:18;65.03;52.31;80.34;;
51665;Laerm;37751;52.408;12.536;2023-03-20T09:10:47;65.09;54.57;77.68;;
51665;Laerm;37751;52.408;12.536;2023-03-20T09:13:20;67.25;51.93;81.19;;
51665;Laerm;37751;52.408;12.536;2023-03-20T09:15:55;63.60;47.40;74.21;;
51665;Laerm;37751;52.408;12.536;2023-03-20T09:18:23;63.58;53.41;75.16;;
51665;Laerm;37751;52.408;12.536;2023-03-20T09:20:51;64.62;50.02;72.09;;
51665;Laerm;37751;52.408;12.536;2023-03-20T09:23:19;64.62;55.34;76.78;;
51665;Laerm;37751;52.408;12.536;2023-03-20T09:25:46;64.89;50.07;73.82;;
51665;Laerm;37751;52.408;12.536;2023-03-20T09:28:14;64.09;51.20;74.27;;
51665;Laerm;37751;52.408;12.536;2023-03-20T09:30:42;66.56;52.24;81.45;;
51665;Laerm;37751;52.408;12.536;2023-03-20T09:33:10;65.83;53.74;80.56;;
51665;Laerm;37751;52.408;12.536;2023-03-20T09:35:38;62.66;53.42;72.48;;
51665;Laerm;37751;52.408;12.536;2023-03-20T09:38:09;65.26;55.21;83.29;;
51665;Laerm;37751;52.408;12.536;2023-03-20T09:40:59;65.25;53.07;74.72;;
51665;Laerm;37751;52.408;12.536;2023-03-20T09:47:02;64.42;51.90;79.55;;
51665;Laerm;37751;52.408;12.536;2023-03-20T09:52:56;64.89;52.54;81.73;;
51665;Laerm;37751;52.408;12.536;2023-03-20T09:55:39;66.17;54.82;83.76;;
51665;Laerm;37751;52.408;12.536;2023-03-20T09:58:12;64.14;53.98;75.21;;
51665;Laerm;37751;52.408;12.536;2023-03-20T10:00:44;66.18;53.01;80.11;;
51665;Laerm;37751;52.408;12.536;2023-03-20T10:03:35;65.26;52.86;73.82;;
51665;Laerm;37751;52.408;12.536;2023-03-20T10:06:12;65.41;52.80;76.50;;
51665;Laerm;37751;52.408;12.536;2023-03-20T10:08:40;65.25;49.08;86.69;;
51665;Laerm;37751;52.408;12.536;2023-03-20T10:20:03;64.55;53.88;74.53;;
51665;Laerm;37751;52.408;12.536;2023-03-20T10:22:48;64.48;55.19;78.85;;
51665;Laerm;37751;52.408;12.536;2023-03-20T10:25:34;63.88;51.36;73.09;;
51665;Laerm;37751;52.408;12.536;2023-03-20T10:28:24;63.78;55.20;75.70;;
51665;Laerm;37751;52.408;12.536;2023-03-20T10:31:08;65.25;56.05;82.76;;
51665;Laerm;37751;52.408;12.536;2023-03-20T10:42:02;66.20;52.79;77.23;;
51665;Laerm;37751;52.408;12.536;2023-03-20T10:44:38;64.21;52.36;73.27;;
51665;Laerm;37751;52.408;12.536;2023-03-20T10:47:13;64.74;51.38;82.94;;
51665;Laerm;37751;52.408;12.536;2023-03-20T10:49:57;63.59;51.53;72.65;;
51665;Laerm;37751;52.408;12.536;2023-03-20T10:52:31;70.40;50.52;96.47;;
51665;Laerm;37751;52.408;12.536;2023-03-20T10:55:21;65.37;51.27;78.65;;
51665;Laerm;37751;52.408;12.536;2023-03-20T10:58:02;65.41;53.29;78.81;;
51665;Laerm;37751;52.408;12.536;2023-03-20T11:00:32;64.74;52.77;79.46;;
51665;Laerm;37751;52.408;12.536;2023-03-20T11:03:00;63.93;50.35;71.58;;
51665;Laerm;37751;52.408;12.536;2023-03-20T11:05:34;63.48;51.43;71.30;;
51665;Laerm;37751;52.408;12.536;2023-03-20T11:08:13;63.88;53.56;74.71;;
51665;Laerm;37751;52.408;12.536;2023-03-20T11:10:42;64.84;54.66;74.81;;
51665;Laerm;37751;52.408;12.536;2023-03-20T11:16:30;64.88;49.00;75.33;;
51665;Laerm;37751;52.408;12.536;2023-03-20T11:19:06;65.16;53.83;80.32;;
51665;Laerm;37751;52.408;12.536;2023-03-20T11:21:48;62.98;52.14;77.14;;
51665;Laerm;37751;52.408;12.536;2023-03-20T11:24:36;65.18;52.22;80.36;;
51665;Laerm;37751;52.408;12.536;2023-03-20T11:27:26;62.76;51.04;71.38;;
51665;Laerm;37751;52.408;12.536;2023-03-20T11:29:56;63.50;52.48;73.02;;
51665;Laerm;37751;52.408;12.536;2023-03-20T11:32:35;64.80;54.27;75.49;;
51665;Laerm;37751;52.408;12.536;2023-03-20T11:37:48;65.06;50.32;76.92;;
51665;Laerm;37751;52.408;12.536;2023-03-20T11:40:29;64.87;53.08;75.04;;
51665;Laerm;37751;52.408;12.536;2023-03-20T11:45:35;63.08;50.27;74.29;;
51665;Laerm;37751;52.408;12.536;2023-03-20T11:48:04;63.97;52.23;75.79;;
51665;Laerm;37751;52.408;12.536;2023-03-20T11:50:36;65.18;51.30;73.34;;
51665;Laerm;37751;52.408;12.536;2023-03-20T11:53:34;63.56;52.61;73.63;;
51665;Laerm;37751;52.408;12.536;2023-03-20T11:56:33;64.68;53.94;74.11;;
51665;Laerm;37751;52.408;12.536;2023-03-20T11:59:14;63.74;49.49;77.59;;
51665;Laerm;37751;52.408;12.536;2023-03-20T12:01:53;65.43;56.72;75.76;;
51665;Laerm;37751;52.408;12.536;2023-03-20T12:04:36;65.14;54.06;83.29;;
51665;Laerm;37751;52.408;12.536;2023-03-20T12:07:21;65.23;53.06;76.74;;
51665;Laerm;37751;52.408;12.536;2023-03-20T12:10:00;63.92;53.35;72.28;;
51665;Laerm;37751;52.408;12.536;2023-03-20T12:31:23;64.44;53.21;78.70;;
51665;Laerm;37751;52.408;12.536;2023-03-20T12:34:22;63.83;51.55;78.01;;
51665;Laerm;37751;52.408;12.536;2023-03-20T12:36:51;64.87;53.29;75.70;;
51665;Laerm;37751;52.408;12.536;2023-03-20T12:39:31;65.10;54.45;73.57;;
51665;Laerm;37751;52.408;12.536;2023-03-20T12:50:32;63.37;48.12;73.92;;
51665;Laerm;37751;52.408;12.536;2023-03-20T12:53:23;65.76;55.38;75.05;;
51665;Laerm;37751;52.408;12.536;2023-03-20T12:58:55;63.90;52.72;73.62;;
51665;Laerm;37751;52.408;12.536;2023-03-20T13:01:52;64.98;52.91;75.08;;
51665;Laerm;37751;52.408;12.536;2023-03-20T13:07:21;64.75;52.63;73.08;;
51665;Laerm;37751;52.408;12.536;2023-03-20T13:10:19;64.61;50.70;74.78;;
51665;Laerm;37751;52.408;12.536;2023-03-20T13:13:28;65.11;53.81;81.05;;
51665;Laerm;37751;52.408;12.536;2023-03-20T13:16:25;64.71;52.76;81.17;;
51665;Laerm;37751;52.408;12.536;2023-03-20T13:22:26;64.51;52.80;75.49;;
51665;Laerm;37751;52.408;12.536;2023-03-20T13:25:11;64.42;53.71;73.61;;
51665;Laerm;37751;52.408;12.536;2023-03-20T13:27:55;64.57;54.64;77.54;;
51665;Laerm;37751;52.408;12.536;2023-03-20T13:30:54;65.93;53.78;77.61;;
51665;Laerm;37751;52.408;12.536;2023-03-20T13:33:46;65.48;55.33;76.60;;
51665;Laerm;37751;52.408;12.536;2023-03-20T13:42:01;65.52;55.77;74.91;;
51665;Laerm;37751;52.408;12.536;2023-03-20T13:44:31;65.70;55.23;77.71;;
51665;Laerm;37751;52.408;12.536;2023-03-20T13:47:23;64.32;50.43;73.14;;
51665;Laerm;37751;52.408;12.536;2023-03-20T13:50:22;64.48;53.62;72.88;;
51665;Laerm;37751;52.408;12.536;2023-03-20T13:53:12;64.87;51.16;74.95;;
51665;Laerm;37751;52.408;12.536;2023-03-20T13:56:04;65.76;54.86;81.15;;
51665;Laerm;37751;52.408;12.536;2023-03-20T14:04:39;64.47;50.30;71.54;;
51665;Laerm;37751;52.408;12.536;2023-03-20T14:09:54;65.64;52.14;76.07;;
51665;Laerm;37751;52.408;12.536;2023-03-20T14:12:25;64.67;52.18;75.58;;
51665;Laerm;37751;52.408;12.536;2023-03-20T14:14:58;65.20;48.98;77.01;;
51665;Laerm;37751;52.408;12.536;2023-03-20T14:17:30;65.01;56.98;73.54;;
51665;Laerm;37751;52.408;12.536;2023-03-20T14:23:31;65.55;51.88;75.55;;
51665;Laerm;37751;52.408;12.536;2023-03-20T14:26:26;65.38;53.82;78.24;;
51665;Laerm;37751;52.408;12.536;2023-03-20T14:29:18;73.13;54.43;95.57;;
51665;Laerm;37751;52.408;12.536;2023-03-20T14:31:49;65.41;53.93;79.14;;
51665;Laerm;37751;52.408;12.536;2023-03-20T14:34:22;66.37;54.85;80.48;;
51665;Laerm;37751;52.408;12.536;2023-03-20T14:37:00;65.04;52.85;82.38;;
51665;Laerm;37751;52.408;12.536;2023-03-20T14:40:01;65.53;53.95;74.65;;
51665;Laerm;37751;52.408;12.536;2023-03-20T14:45:41;65.75;54.54;74.89;;
51665;Laerm;37751;52.408;12.536;2023-03-20T14:48:43;64.41;53.67;72.82;;
51665;Laerm;37751;52.408;12.536;2023-03-20T14:56:50;64.61;52.80;76.53;;
51665;Laerm;37751;52.408;12.536;2023-03-20T14:59:22;65.16;51.48;85.21;;
51665;Laerm;37751;52.408;12.536;2023-03-20T15:01:59;62.92;51.84;70.53;;
51665;Laerm;37751;52.408;12.536;2023-03-20T15:04:39;64.35;50.47;73.24;;
51665;Laerm;37751;52.408;12.536;2023-03-20T15:07:21;66.53;50.58;77.63;;
51665;Laerm;37751;52.408;12.536;2023-03-20T15:09:54;64.93;52.21;72.54;;
51665;Laerm;37751;52.408;12.536;2023-03-20T15:12:30;64.16;51.80;74.19;;
51665;Laerm;37751;52.408;12.536;2023-03-20T15:15:05;65.28;53.11;81.54;;
51665;Laerm;37751;52.408;12.536;2023-03-20T15:17:39;63.96;54.70;72.47;;
51665;Laerm;37751;52.408;12.536;2023-03-20T15:20:26;63.64;52.15;74.46;;
51665;Laerm;37751;52.408;12.536;2023-03-20T15:22:58;64.66;53.28;74.28;;
51665;Laerm;37751;52.408;12.536;2023-03-20T15:25:38;64.10;52.15;71.97;;
51665;Laerm;37751;52.408;12.536;2023-03-20T15:28:07;65.02;53.00;72.36;;
51665;Laerm;37751;52.408;12.536;2023-03-20T15:30:39;63.41;49.63;72.90;;
51665;Laerm;37751;52.408;12.536;2023-03-20T15:33:16;63.89;50.67;75.01;;
51665;Laerm;37751;52.408;12.536;2023-03-20T15:35:46;67.39;54.93;81.09;;
51665;Laerm;37751;52.408;12.536;2023-03-20T15:38:15;63.76;54.46;73.36;;
51665;Laerm;37751;52.408;12.536;2023-03-20T15:40:44;64.98;55.17;73.43;;
51665;Laerm;37751;52.408;12.536;2023-03-20T15:43:24;65.53;53.15;73.99;;
51665;Laerm;37751;52.408;12.536;2023-03-20T15:45:53;63.43;50.57;72.46;;
51665;Laerm;37751;52.408;12.536;2023-03-20T15:48:48;65.89;53.40;81.69;;
51665;Laerm;37751;52.408;12.536;2023-03-20T15:51:17;65.22;53.59;76.04;;
51665;Laerm;37751;52.408;12.536;2023-03-20T15:53:47;63.42;50.04;72.20;;
51665;Laerm;37751;52.408;12.536;2023-03-20T15:56:17;64.69;51.08;75.07;;
51665;Laerm;37751;52.408;12.536;2023-03-20T15:58:52;63.74;51.94;72.53;;
51665;Laerm;37751;52.408;12.536;2023-03-20T16:01:24;64.07;51.15;74.75;;
51665;Laerm;37751;52.408;12.536;2023-03-20T16:03:56;64.44;52.72;71.31;;
51665;Laerm;37751;52.408;12.536;2023-03-20T16:06:26;65.15;53.16;73.96;;
51665;Laerm;37751;52.408;12.536;2023-03-20T16:09:05;62.80;50.82;73.16;;
51665;Laerm;37751;52.408;12.536;2023-03-20T16:11:38;65.83;48.26;87.26;;
51665;Laerm;37751;52.408;12.536;2023-03-20T16:14:13;63.87;48.54;72.53;;
51665;Laerm;37751;52.408;12.536;2023-03-20T16:16:43;64.13;51.93;73.15;;
51665;Laerm;37751;52.408;12.536;2023-03-20T16:19:12;64.06;51.18;74.53;;
51665;Laerm;37751;52.408;12.536;2023-03-20T16:21:53;62.39;48.52;71.81;;
51665;Laerm;37751;52.408;12.536;2023-03-20T16:24:30;65.11;48.67;75.95;;
51665;Laerm;37751;52.408;12.536;2023-03-20T16:27:06;64.21;52.30;76.29;;
51665;Laerm;37751;52.408;12.536;2023-03-20T16:29:35;65.16;53.84;73.34;;
51665;Laerm;37751;52.408;12.536;2023-03-20T16:35:24;66.55;52.47;86.90;;
51665;Laerm;37751;52.408;12.536;2023-03-20T16:37:54;64.19;50.98;78.70;;
51665;Laerm;37751;52.408;12.536;2023-03-20T16:40:30;61.60;47.40;71.21;;
51665;Laerm;37751;52.408;12.536;2023-03-20T16:43:29;64.49;48.84;73.80;;
51665;Laerm;37751;52.408;12.536;2023-03-20T16:46:04;62.67;49.95;72.93;;
51665;Laerm;37751;52.408;12.536;2023-03-20T16:48:35;62.22;52.59;72.96;;